createdAt,value
2018-08-24T00:00:30.050Z,1.47
2018-08-24T00:05:33.218Z,1.07
2018-08-24T00:10:36.406Z,1.50
2018-08-24T00:15:40.646Z,1.33
2018-08-24T00:20:43.822Z,3.10
2018-08-24T00:25:48.088Z,3.30
2018-08-24T00:30:54.994Z,5.00
2018-08-24T00:35:59.260Z,5.10
2018-08-24T00:41:09.022Z,6.30
2018-08-24T00:46:14.326Z,7.60
2018-08-24T00:51:17.596Z,7.17
2018-08-24T00:56:20.760Z,6.10
2018-08-24T01:01:23.966Z,4.60
2018-08-24T01:06:28.226Z,5.03
2018-08-24T01:11:36.861Z,5.00
2018-08-24T01:16:45.526Z,6.30
2018-08-24T01:21:48.740Z,6.87
2018-08-24T01:26:57.253Z,7.23
2018-08-24T01:32:00.502Z,7.83
2018-08-24T01:37:03.771Z,7.57
2018-08-24T01:42:06.974Z,6.47
2018-08-24T01:47:10.184Z,7.37
2018-08-24T01:52:13.414Z,8.33
2018-08-24T01:57:16.682Z,10.63
2018-08-24T02:02:19.870Z,11.53
2018-08-24T02:07:24.146Z,11.37
2018-08-24T02:12:32.894Z,10.97
2018-08-24T02:17:41.579Z,11.27
2018-08-24T02:22:48.413Z,10.80
2018-08-24T02:27:51.650Z,11.30
2018-08-24T02:32:54.856Z,10.63
2018-08-24T02:37:59.066Z,10.43
2018-08-24T02:43:02.309Z,9.70
2018-08-24T02:48:05.490Z,10.13
2018-08-24T02:53:08.763Z,10.17
2018-08-24T02:58:11.946Z,12.70
2018-08-24T03:03:15.142Z,13.40
2018-08-24T03:08:23.724Z,14.80
2018-08-24T03:13:26.864Z,17.30
2018-08-24T03:18:30.039Z,15.93
2018-08-24T03:23:33.299Z,18.73
2018-08-24T03:28:36.490Z,17.77
2018-08-24T03:33:39.681Z,18.10
2018-08-24T03:38:42.881Z,17.00
2018-08-24T03:43:46.047Z,16.80
2018-08-24T03:48:49.234Z,17.60
2018-08-24T03:53:52.458Z,16.63
2018-08-24T03:58:55.761Z,20.50
2018-08-24T04:03:59.022Z,18.40
2018-08-24T04:09:02.228Z,19.80
2018-08-24T04:14:05.410Z,19.80
2018-08-24T04:19:12.870Z,19.13
2018-08-24T04:24:16.058Z,19.03
2018-08-24T04:29:19.260Z,19.53
2018-08-24T04:34:22.534Z,21.80
2018-08-24T04:39:36.142Z,21.67
2018-08-24T04:44:39.342Z,22.07
2018-08-24T04:49:42.566Z,21.60
2018-08-24T04:54:49.902Z,21.90
2018-08-24T04:59:53.218Z,20.90
2018-08-24T05:04:56.526Z,19.83
2018-08-24T05:10:03.465Z,20.50
2018-08-24T05:15:06.798Z,20.23
2018-08-24T05:20:20.202Z,19.20
2018-08-24T05:25:23.398Z,19.07
2018-08-24T05:30:30.909Z,19.90
2018-08-24T05:35:34.171Z,20.33
2018-08-24T05:40:38.963Z,21.50
2018-08-24T05:45:42.206Z,20.13
2018-08-24T05:50:45.433Z,20.43
2018-08-24T05:55:50.476Z,17.77
2018-08-24T06:00:53.967Z,18.23
2018-08-24T06:06:04.094Z,19.73
2018-08-24T06:11:14.382Z,16.70
2018-08-24T06:16:20.822Z,16.83
2018-08-24T06:21:24.776Z,17.53
2018-08-24T06:26:31.723Z,18.17
2018-08-24T06:31:36.575Z,18.70
2018-08-24T06:36:50.141Z,19.93
2018-08-24T06:41:55.627Z,20.97
2018-08-24T06:46:59.842Z,20.13
2018-08-24T06:52:03.187Z,19.40
2018-08-24T06:57:09.248Z,20.10
2018-08-24T07:02:13.764Z,18.57
2018-08-24T07:07:18.112Z,19.07
2018-08-24T07:12:26.292Z,20.10
2018-08-24T07:17:34.904Z,20.30
2018-08-24T07:22:44.029Z,21.33
2018-08-24T07:27:58.343Z,20.90
2018-08-24T07:33:01.705Z,18.67
2018-08-24T07:38:05.115Z,18.93
2018-08-24T07:43:08.385Z,20.93
2018-08-24T07:48:11.782Z,20.23
2018-08-24T07:53:15.006Z,23.60
2018-08-24T07:58:18.584Z,21.80
2018-08-24T08:03:21.882Z,19.83
2018-08-24T08:08:25.206Z,19.77
2018-08-24T08:13:28.394Z,19.77
2018-08-24T08:18:31.645Z,19.03
2018-08-24T08:23:34.813Z,18.97
2018-08-24T08:28:38.048Z,17.67
2018-08-24T08:33:41.230Z,13.57
2018-08-24T08:38:45.670Z,12.63
2018-08-24T08:43:48.962Z,12.40
2018-08-24T08:48:52.186Z,9.70
2018-08-24T08:53:56.102Z,11.50
2018-08-24T08:59:00.816Z,9.30
2018-08-24T09:04:04.162Z,8.47
2018-08-24T09:09:08.693Z,8.83
2018-08-24T09:14:12.431Z,9.13
2018-08-24T09:19:21.102Z,8.43
2018-08-24T09:24:29.787Z,8.90
2018-08-24T09:29:33.321Z,8.37
2018-08-24T09:34:37.588Z,7.10
2018-08-24T09:39:40.898Z,6.50
2018-08-24T09:44:44.204Z,5.27
2018-08-24T09:49:47.689Z,4.57
2018-08-24T09:54:53.118Z,3.97
2018-08-24T09:59:56.378Z,3.67
2018-08-24T10:05:04.905Z,3.57
2018-08-24T10:10:08.228Z,2.50
2018-08-24T10:15:11.432Z,2.93
2018-08-24T10:20:14.613Z,2.57
2018-08-24T10:25:17.874Z,1.93
2018-08-24T10:30:22.198Z,2.03
2018-08-24T10:35:25.398Z,2.50
2018-08-24T10:40:29.849Z,2.60
2018-08-24T10:45:33.150Z,2.53
2018-08-24T10:50:36.432Z,1.97
2018-08-24T10:55:39.704Z,3.90
2018-08-24T11:00:43.027Z,3.90
2018-08-24T11:05:46.203Z,3.90
2018-08-24T11:10:49.542Z,2.70
2018-08-24T11:15:52.747Z,2.20
2018-08-24T11:20:56.093Z,1.80
2018-08-24T11:26:01.326Z,2.57
2018-08-24T11:31:04.662Z,2.73
2018-08-24T11:36:08.490Z,2.47
2018-08-24T11:41:12.058Z,2.00
2018-08-24T11:46:17.382Z,1.63
2018-08-24T11:51:21.853Z,1.37
2018-08-24T11:56:26.139Z,1.40
2018-08-24T12:01:29.707Z,1.60
2018-08-24T12:06:34.914Z,1.50
2018-08-24T12:11:38.119Z,1.60
2018-08-24T12:16:41.392Z,1.50
2018-08-24T12:21:44.763Z,1.37
2018-08-24T12:26:47.915Z,1.30
2018-08-24T12:31:52.143Z,0.93
2018-08-24T12:36:55.382Z,1.80
2018-08-24T12:41:58.794Z,1.50
2018-08-24T12:47:03.403Z,1.37
2018-08-24T12:52:07.731Z,2.20
2018-08-24T12:57:11.003Z,1.60
2018-08-24T13:02:15.374Z,1.20
2018-08-24T13:07:18.590Z,1.60
2018-08-24T13:12:21.863Z,1.10
2018-08-24T13:17:25.110Z,1.20
2018-08-24T13:22:28.303Z,1.30
2018-08-24T13:27:31.597Z,1.23
2018-08-24T13:32:35.303Z,1.40
2018-08-24T13:37:38.578Z,1.10
2018-08-24T13:42:41.751Z,1.40
2018-08-24T13:47:47.026Z,1.13
2018-08-24T13:52:50.275Z,0.83
2018-08-24T13:57:55.093Z,1.00
2018-08-24T14:02:59.246Z,0.90
2018-08-24T14:08:03.729Z,1.00
2018-08-24T14:13:07.107Z,0.70
2018-08-24T14:18:14.590Z,0.70
2018-08-24T14:23:17.956Z,0.97
2018-08-24T14:28:22.265Z,0.67
2018-08-24T14:33:25.634Z,0.90
2018-08-24T14:38:29.008Z,1.13
2018-08-24T14:43:32.343Z,1.20
2018-08-24T14:48:36.622Z,0.80
2018-08-24T14:53:39.992Z,0.90
2018-08-24T14:58:43.234Z,1.30
2018-08-24T15:03:46.548Z,1.17
2018-08-24T15:08:53.162Z,0.83
2018-08-24T15:13:58.681Z,0.60
2018-08-24T15:19:02.214Z,0.70
2018-08-24T15:24:06.430Z,0.87
2018-08-24T15:29:13.722Z,1.03
2018-08-24T15:34:16.941Z,0.93
2018-08-24T15:39:20.739Z,0.90
2018-08-24T15:44:24.017Z,1.33
2018-08-24T15:49:27.386Z,0.90
2018-08-24T15:54:30.597Z,1.13
2018-08-24T15:59:33.951Z,0.73
2018-08-24T16:04:38.107Z,0.90
2018-08-24T16:09:41.651Z,0.87
2018-08-24T16:14:48.382Z,0.50
2018-08-24T16:19:51.919Z,0.90
2018-08-24T16:24:55.242Z,0.60
2018-08-24T16:29:58.670Z,0.63
2018-08-24T16:35:02.171Z,0.80
2018-08-24T16:40:05.674Z,0.97
2018-08-24T16:45:09.019Z,0.60
2018-08-24T16:50:12.704Z,0.80
2018-08-24T16:55:17.990Z,1.00
2018-08-24T17:00:21.257Z,0.40
2018-08-24T17:05:25.047Z,0.60
2018-08-24T17:10:28.351Z,1.10
2018-08-24T17:15:31.729Z,0.50
2018-08-24T17:20:35.395Z,0.47
2018-08-24T17:25:39.518Z,0.60
2018-08-24T17:30:45.086Z,1.20
2018-08-24T17:35:48.459Z,0.63
2018-08-24T17:40:51.717Z,0.40
2018-08-24T17:45:56.223Z,0.40
2018-08-24T17:51:00.379Z,0.77
2018-08-24T17:56:03.810Z,0.47
2018-08-24T18:01:07.147Z,0.90
2018-08-24T18:06:12.419Z,0.60
2018-08-24T18:11:15.642Z,0.73
2018-08-24T18:16:18.978Z,0.77
2018-08-24T18:21:22.302Z,1.23
2018-08-24T18:26:25.603Z,0.63
2018-08-24T18:31:28.914Z,0.80
2018-08-24T18:36:34.279Z,0.80
2018-08-24T18:41:37.622Z,1.00
2018-08-24T18:46:40.875Z,0.60
2018-08-24T18:51:44.598Z,0.97
2018-08-24T18:56:47.995Z,1.00
2018-08-24T19:01:51.412Z,1.00
2018-08-24T19:06:57.837Z,0.83
2018-08-24T19:12:06.775Z,0.73
2018-08-24T19:17:16.206Z,0.70
2018-08-24T19:22:19.480Z,0.70
2018-08-24T19:27:27.395Z,0.90
2018-08-24T19:32:30.844Z,0.80
2018-08-24T19:37:36.031Z,1.00
2018-08-24T19:42:39.245Z,0.87
2018-08-24T19:47:48.767Z,0.90
2018-08-24T19:52:51.974Z,0.80
2018-08-24T19:58:00.798Z,1.00
2018-08-24T20:03:05.108Z,1.10
2018-08-24T20:08:13.891Z,1.17
2018-08-24T20:13:18.139Z,1.00
2018-08-24T20:18:24.672Z,1.57
2018-08-24T20:23:28.983Z,1.67
2018-08-24T20:28:32.364Z,1.50
2018-08-24T20:33:35.661Z,1.10
2018-08-24T20:38:38.934Z,1.30
2018-08-24T20:43:43.315Z,1.00
2018-08-24T20:48:46.598Z,1.20
2018-08-24T20:53:50.881Z,1.60
2018-08-24T20:58:55.398Z,1.37
2018-08-24T21:03:59.448Z,1.23
2018-08-24T21:09:02.677Z,1.07
2018-08-24T21:14:06.108Z,1.40
2018-08-24T21:19:09.609Z,1.10
2018-08-24T21:24:14.903Z,1.53
2018-08-24T21:29:18.369Z,1.60
2018-08-24T21:34:21.678Z,1.10
2018-08-24T21:39:24.998Z,1.17
2018-08-24T21:44:29.294Z,1.50
2018-08-24T21:49:32.486Z,1.03
2018-08-24T21:54:35.758Z,1.83
2018-08-24T21:59:41.086Z,1.20
2018-08-24T22:04:44.321Z,1.40
2018-08-24T22:09:47.671Z,1.40
2018-08-24T22:14:50.938Z,1.03
2018-08-24T22:19:54.148Z,1.50
2018-08-24T22:24:57.400Z,1.10
2018-08-24T22:30:01.920Z,1.23
2018-08-24T22:35:07.173Z,1.30
2018-08-24T22:40:10.471Z,1.37
2018-08-24T22:45:14.557Z,1.57
2018-08-24T22:50:17.798Z,1.17
2018-08-24T22:55:21.118Z,1.30
2018-08-24T23:00:24.303Z,1.30
2018-08-24T23:05:27.506Z,1.67
2018-08-24T23:10:30.893Z,1.40
2018-08-24T23:15:34.271Z,1.20
2018-08-24T23:20:37.490Z,1.40
2018-08-24T23:25:41.246Z,1.57
2018-08-24T23:30:44.437Z,1.70
2018-08-24T23:35:47.742Z,1.60
2018-08-24T23:40:50.939Z,1.63
2018-08-24T23:45:54.162Z,1.20
2018-08-24T23:50:57.397Z,1.33
2018-08-24T23:56:00.689Z,1.10
